sensor_id;sensor_type;location;lat;lon;timestamp;pressure;altitude;pressure_sealevel;temperature;humidity
34374;BME280;20637;55.770;37.592;2023-05-25T00:00:39;99689.56;;;19.14;63.35
34374;BME280;20637;55.770;37.592;2023-05-25T00:03:04;99686.84;;;19.14;63.57
34374;BME280;20637;55.770;37.592;2023-05-25T00:05:30;99686.00;;;19.13;63.53
34374;BME280;20637;55.770;37.592;2023-05-25T00:07:55;99689.38;;;19.15;63.49
34374;BME280;20637;55.770;37.592;2023-05-25T00:10:21;99683.91;;;19.15;63.45
34374;BME280;20637;55.770;37.592;2023-05-25T00:12:46;99677.78;;;19.13;63.62
34374;BME280;20637;55.770;37.592;2023-05-25T00:15:12;99688.34;;;19.10;63.69
34374;BME280;20637;55.770;37.592;2023-05-25T00:17:38;99684.75;;;19.09;63.61
34374;BME280;20637;55.770;37.592;2023-05-25T00:20:05;99674.47;;;19.04;63.56
34374;BME280;20637;55.770;37.592;2023-05-25T00:22:34;99680.41;;;19.01;63.67
34374;BME280;20637;55.770;37.592;2023-05-25T00:25:00;99667.38;;;18.97;63.72
34374;BME280;20637;55.770;37.592;2023-05-25T00:27:25;99675.00;;;18.95;63.88
34374;BME280;20637;55.770;37.592;2023-05-25T00:29:50;99678.78;;;18.94;63.78
34374;BME280;20637;55.770;37.592;2023-05-25T00:32:17;99681.72;;;18.92;64.10
34374;BME280;20637;55.770;37.592;2023-05-25T00:34:45;99676.94;;;18.88;64.34
34374;BME280;20637;55.770;37.592;2023-05-25T00:37:11;99676.31;;;18.86;64.10
34374;BME280;20637;55.770;37.592;2023-05-25T00:39:36;99676.53;;;18.84;64.08
34374;BME280;20637;55.770;37.592;2023-05-25T00:42:02;99677.59;;;18.83;64.30
34374;BME280;20637;55.770;37.592;2023-05-25T00:44:27;99666.88;;;18.82;64.36
34374;BME280;20637;55.770;37.592;2023-05-25T00:46:53;99667.91;;;18.81;64.32
34374;BME280;20637;55.770;37.592;2023-05-25T00:49:19;99651.34;;;18.76;64.46
34374;BME280;20637;55.770;37.592;2023-05-25T00:51:45;99644.66;;;18.72;64.82
34374;BME280;20637;55.770;37.592;2023-05-25T00:54:15;99648.63;;;18.69;64.87
34374;BME280;20637;55.770;37.592;2023-05-25T00:56:52;99650.97;;;18.66;64.96
34374;BME280;20637;55.770;37.592;2023-05-25T00:59:23;99647.00;;;18.62;65.12
34374;BME280;20637;55.770;37.592;2023-05-25T01:01:50;99650.19;;;18.59;65.24
34374;BME280;20637;55.770;37.592;2023-05-25T01:04:18;99647.06;;;18.55;65.29
34374;BME280;20637;55.770;37.592;2023-05-25T01:06:46;99638.84;;;18.55;65.52
34374;BME280;20637;55.770;37.592;2023-05-25T01:09:12;99634.03;;;18.57;65.46
34374;BME280;20637;55.770;37.592;2023-05-25T01:11:41;99629.38;;;18.58;65.11
34374;BME280;20637;55.770;37.592;2023-05-25T01:14:07;99628.31;;;18.59;65.12
34374;BME280;20637;55.770;37.592;2023-05-25T01:16:33;99630.00;;;18.60;65.25
34374;BME280;20637;55.770;37.592;2023-05-25T01:19:00;99626.22;;;18.61;65.24
34374;BME280;20637;55.770;37.592;2023-05-25T01:21:41;99623.25;;;18.62;65.00
34374;BME280;20637;55.770;37.592;2023-05-25T01:24:16;99616.72;;;18.63;65.00
34374;BME280;20637;55.770;37.592;2023-05-25T01:27:21;99614.84;;;18.64;65.07
34374;BME280;20637;55.770;37.592;2023-05-25T01:29:39;99613.16;;;18.63;65.29
34374;BME280;20637;55.770;37.592;2023-05-25T01:32:06;99609.56;;;18.62;65.71
34374;BME280;20637;55.770;37.592;2023-05-25T01:34:33;99626.41;;;18.59;65.98
34374;BME280;20637;55.770;37.592;2023-05-25T01:36:58;99614.03;;;18.57;65.80
34374;BME280;20637;55.770;37.592;2023-05-25T01:39:24;99607.09;;;18.54;65.85
34374;BME280;20637;55.770;37.592;2023-05-25T01:41:50;99608.38;;;18.51;65.70
34374;BME280;20637;55.770;37.592;2023-05-25T01:44:15;99619.31;;;18.51;65.99
34374;BME280;20637;55.770;37.592;2023-05-25T01:46:41;99616.13;;;18.54;65.92
34374;BME280;20637;55.770;37.592;2023-05-25T01:52:07;99628.09;;;18.60;66.04
34374;BME280;20637;55.770;37.592;2023-05-25T01:54:36;99627.44;;;18.65;65.67
34374;BME280;20637;55.770;37.592;2023-05-25T01:57:03;99642.56;;;18.67;65.64
34374;BME280;20637;55.770;37.592;2023-05-25T01:59:30;99635.81;;;18.70;65.66
34374;BME280;20637;55.770;37.592;2023-05-25T02:01:56;99640.88;;;18.73;66.04
34374;BME280;20637;55.770;37.592;2023-05-25T02:04:22;99641.47;;;18.75;65.86
34374;BME280;20637;55.770;37.592;2023-05-25T02:06:50;99646.47;;;18.78;66.01
34374;BME280;20637;55.770;37.592;2023-05-25T02:09:17;99639.75;;;18.80;65.95
34374;BME280;20637;55.770;37.592;2023-05-25T02:11:42;99643.09;;;18.82;65.83
34374;BME280;20637;55.770;37.592;2023-05-25T02:14:08;99642.03;;;18.83;65.89
34374;BME280;20637;55.770;37.592;2023-05-25T02:16:35;99630.84;;;18.85;65.82
34374;BME280;20637;55.770;37.592;2023-05-25T02:19:00;99626.88;;;18.87;65.63
34374;BME280;20637;55.770;37.592;2023-05-25T02:21:25;99644.72;;;18.90;65.68
34374;BME280;20637;55.770;37.592;2023-05-25T02:23:52;99649.31;;;18.96;65.89
34374;BME280;20637;55.770;37.592;2023-05-25T02:26:18;99643.16;;;19.00;65.91
34374;BME280;20637;55.770;37.592;2023-05-25T02:28:44;99647.75;;;19.07;65.92
34374;BME280;20637;55.770;37.592;2023-05-25T02:31:09;99648.53;;;19.14;65.89
34374;BME280;20637;55.770;37.592;2023-05-25T02:33:35;99661.31;;;19.20;65.85
34374;BME280;20637;55.770;37.592;2023-05-25T02:36:00;99664.22;;;19.25;65.58
34374;BME280;20637;55.770;37.592;2023-05-25T02:38:26;99673.47;;;19.30;65.73
34374;BME280;20637;55.770;37.592;2023-05-25T02:40:52;99668.97;;;19.36;65.63
34374;BME280;20637;55.770;37.592;2023-05-25T02:43:19;99669.78;;;19.43;65.43
34374;BME280;20637;55.770;37.592;2023-05-25T02:45:44;99675.22;;;19.49;65.40
34374;BME280;20637;55.770;37.592;2023-05-25T02:48:10;99659.75;;;19.55;65.52
34374;BME280;20637;55.770;37.592;2023-05-25T02:50:36;99663.97;;;19.58;65.55
34374;BME280;20637;55.770;37.592;2023-05-25T02:53:05;99660.53;;;19.62;65.42
34374;BME280;20637;55.770;37.592;2023-05-25T02:55:30;99669.59;;;19.63;65.45
34374;BME280;20637;55.770;37.592;2023-05-25T02:57:55;99662.22;;;19.63;65.55
34374;BME280;20637;55.770;37.592;2023-05-25T03:00:44;99675.22;;;19.68;65.57
34374;BME280;20637;55.770;37.592;2023-05-25T03:03:11;99679.03;;;19.67;65.52
34374;BME280;20637;55.770;37.592;2023-05-25T03:05:36;99676.91;;;19.69;65.54
34374;BME280;20637;55.770;37.592;2023-05-25T03:08:02;99679.41;;;19.70;65.44
34374;BME280;20637;55.770;37.592;2023-05-25T03:10:29;99680.88;;;19.73;65.61
34374;BME280;20637;55.770;37.592;2023-05-25T03:12:54;99682.53;;;19.74;65.47
34374;BME280;20637;55.770;37.592;2023-05-25T03:15:20;99675.53;;;19.78;65.53
34374;BME280;20637;55.770;37.592;2023-05-25T03:17:47;99682.25;;;19.82;65.26
34374;BME280;20637;55.770;37.592;2023-05-25T03:20:13;99685.16;;;19.87;65.26
34374;BME280;20637;55.770;37.592;2023-05-25T03:22:43;99686.38;;;19.91;65.29
34374;BME280;20637;55.770;37.592;2023-05-25T03:25:09;99688.19;;;19.97;65.14
34374;BME280;20637;55.770;37.592;2023-05-25T03:27:37;99684.31;;;20.05;65.29
34374;BME280;20637;55.770;37.592;2023-05-25T03:30:04;99684.25;;;20.11;65.14
34374;BME280;20637;55.770;37.592;2023-05-25T03:32:30;99689.28;;;20.14;64.94
34374;BME280;20637;55.770;37.592;2023-05-25T03:34:56;99678.47;;;20.19;64.97
34374;BME280;20637;55.770;37.592;2023-05-25T03:37:22;99686.34;;;20.27;64.96
34374;BME280;20637;55.770;37.592;2023-05-25T03:39:48;99675.81;;;20.31;65.22
34374;BME280;20637;55.770;37.592;2023-05-25T03:42:13;99677.47;;;20.32;64.77
34374;BME280;20637;55.770;37.592;2023-05-25T03:44:39;99681.31;;;20.31;64.88
34374;BME280;20637;55.770;37.592;2023-05-25T03:47:06;99676.47;;;20.26;64.83
34374;BME280;20637;55.770;37.592;2023-05-25T03:49:31;99675.25;;;20.22;65.04
34374;BME280;20637;55.770;37.592;2023-05-25T03:51:57;99680.59;;;20.17;64.94
34374;BME280;20637;55.770;37.592;2023-05-25T03:54:24;99673.19;;;20.18;64.95
34374;BME280;20637;55.770;37.592;2023-05-25T03:56:50;99668.25;;;20.26;65.09
34374;BME280;20637;55.770;37.592;2023-05-25T03:59:15;99676.63;;;20.31;64.83
34374;BME280;20637;55.770;37.592;2023-05-25T04:01:41;99661.41;;;20.35;64.83
34374;BME280;20637;55.770;37.592;2023-05-25T04:04:06;99665.59;;;20.38;64.89
34374;BME280;20637;55.770;37.592;2023-05-25T04:06:31;99663.84;;;20.43;64.58
34374;BME280;20637;55.770;37.592;2023-05-25T04:08:58;99650.75;;;20.46;64.67
34374;BME280;20637;55.770;37.592;2023-05-25T04:11:24;99650.97;;;20.44;64.64
34374;BME280;20637;55.770;37.592;2023-05-25T04:13:52;99647.38;;;20.43;64.58
34374;BME280;20637;55.770;37.592;2023-05-25T04:16:18;99648.00;;;20.46;64.55
34374;BME280;20637;55.770;37.592;2023-05-25T04:18:44;99644.78;;;20.49;64.50
34374;BME280;20637;55.770;37.592;2023-05-25T04:21:09;99646.94;;;20.47;64.61
34374;BME280;20637;55.770;37.592;2023-05-25T04:23:35;99641.06;;;20.43;64.74
34374;BME280;20637;55.770;37.592;2023-05-25T04:26:02;99643.00;;;20.42;64.59
34374;BME280;20637;55.770;37.592;2023-05-25T04:28:28;99643.78;;;20.43;64.59
34374;BME280;20637;55.770;37.592;2023-05-25T04:31:11;99651.69;;;20.51;64.61
34374;BME280;20637;55.770;37.592;2023-05-25T04:33:45;99644.94;;;20.54;64.80
34374;BME280;20637;55.770;37.592;2023-05-25T04:36:18;99635.25;;;20.51;64.69
34374;BME280;20637;55.770;37.592;2023-05-25T04:38:44;99634.19;;;20.52;64.68
34374;BME280;20637;55.770;37.592;2023-05-25T04:41:15;99642.63;;;20.51;64.72
34374;BME280;20637;55.770;37.592;2023-05-25T04:43:47;99643.47;;;20.51;64.84
34374;BME280;20637;55.770;37.592;2023-05-25T04:46:15;99645.78;;;20.54;64.89
34374;BME280;20637;55.770;37.592;2023-05-25T04:48:42;99650.09;;;20.62;64.82
34374;BME280;20637;55.770;37.592;2023-05-25T04:51:08;99652.63;;;20.75;64.63
34374;BME280;20637;55.770;37.592;2023-05-25T04:53:33;99653.97;;;20.84;64.57
34374;BME280;20637;55.770;37.592;2023-05-25T04:56:00;99651.38;;;20.89;64.54
34374;BME280;20637;55.770;37.592;2023-05-25T04:58:26;99656.50;;;20.97;64.25
34374;BME280;20637;55.770;37.592;2023-05-25T05:00:54;99661.66;;;21.05;64.47
34374;BME280;20637;55.770;37.592;2023-05-25T05:03:19;99652.22;;;21.01;64.40
34374;BME280;20637;55.770;37.592;2023-05-25T05:05:45;99650.78;;;20.99;64.49
34374;BME280;20637;55.770;37.592;2023-05-25T05:08:16;99656.66;;;21.02;64.24
34374;BME280;20637;55.770;37.592;2023-05-25T05:10:41;99647.09;;;21.05;64.28
34374;BME280;20637;55.770;37.592;2023-05-25T05:13:07;99657.00;;;21.06;64.28
34374;BME280;20637;55.770;37.592;2023-05-25T05:15:32;99648.56;;;21.07;64.25
34374;BME280;20637;55.770;37.592;2023-05-25T05:17:58;99654.25;;;21.06;64.43
34374;BME280;20637;55.770;37.592;2023-05-25T05:20:23;99648.06;;;20.99;64.32
34374;BME280;20637;55.770;37.592;2023-05-25T05:22:49;99648.75;;;20.94;64.65
34374;BME280;20637;55.770;37.592;2023-05-25T05:25:16;99649.81;;;20.93;64.80
34374;BME280;20637;55.770;37.592;2023-05-25T05:27:41;99658.88;;;20.93;64.74
34374;BME280;20637;55.770;37.592;2023-05-25T05:30:14;99651.50;;;20.94;64.57
34374;BME280;20637;55.770;37.592;2023-05-25T05:32:40;99649.59;;;20.95;64.57
34374;BME280;20637;55.770;37.592;2023-05-25T05:35:07;99648.66;;;21.01;64.71
34374;BME280;20637;55.770;37.592;2023-05-25T05:37:39;99654.03;;;21.07;64.56
34374;BME280;20637;55.770;37.592;2023-05-25T05:40:05;99644.28;;;21.11;64.44
34374;BME280;20637;55.770;37.592;2023-05-25T05:42:33;99654.94;;;21.19;64.41
34374;BME280;20637;55.770;37.592;2023-05-25T05:44:58;99641.66;;;21.28;64.24
34374;BME280;20637;55.770;37.592;2023-05-25T05:47:24;99649.56;;;21.36;64.21
34374;BME280;20637;55.770;37.592;2023-05-25T05:49:49;99652.22;;;21.43;64.06
34374;BME280;20637;55.770;37.592;2023-05-25T05:52:15;99649.69;;;21.41;63.82
34374;BME280;20637;55.770;37.592;2023-05-25T05:54:40;99649.69;;;21.41;64.14
34374;BME280;20637;55.770;37.592;2023-05-25T05:57:10;99652.09;;;21.37;63.93
34374;BME280;20637;55.770;37.592;2023-05-25T05:59:35;99659.84;;;21.41;64.07
34374;BME280;20637;55.770;37.592;2023-05-25T06:02:01;99657.22;;;21.46;64.07
34374;BME280;20637;55.770;37.592;2023-05-25T06:04:27;99650.19;;;21.50;63.99
34374;BME280;20637;55.770;37.592;2023-05-25T06:06:53;99650.06;;;21.45;63.89
34374;BME280;20637;55.770;37.592;2023-05-25T06:09:19;99646.59;;;21.37;63.92
34374;BME280;20637;55.770;37.592;2023-05-25T06:11:45;99642.16;;;21.36;63.85
34374;BME280;20637;55.770;37.592;2023-05-25T06:14:11;99644.91;;;21.36;63.85
34374;BME280;20637;55.770;37.592;2023-05-25T06:16:37;99637.03;;;21.40;63.95
34374;BME280;20637;55.770;37.592;2023-05-25T06:19:02;99646.72;;;21.43;63.92
34374;BME280;20637;55.770;37.592;2023-05-25T06:21:28;99640.03;;;21.38;63.99
34374;BME280;20637;55.770;37.592;2023-05-25T06:23:53;99637.28;;;21.38;64.19
34374;BME280;20637;55.770;37.592;2023-05-25T06:26:19;99645.03;;;21.42;64.26
34374;BME280;20637;55.770;37.592;2023-05-25T06:28:44;99633.00;;;21.43;64.19
34374;BME280;20637;55.770;37.592;2023-05-25T06:31:11;99636.69;;;21.36;64.06
34374;BME280;20637;55.770;37.592;2023-05-25T06:33:37;99637.28;;;21.38;64.03
34374;BME280;20637;55.770;37.592;2023-05-25T06:36:04;99641.09;;;21.37;64.07
34374;BME280;20637;55.770;37.592;2023-05-25T06:38:29;99642.16;;;21.36;64.34
34374;BME280;20637;55.770;37.592;2023-05-25T06:40:55;99636.69;;;21.36;63.85
34374;BME280;20637;55.770;37.592;2023-05-25T06:43:20;99645.16;;;21.35;63.99
34374;BME280;20637;55.770;37.592;2023-05-25T06:46:06;99648.13;;;21.33;63.92
34374;BME280;20637;55.770;37.592;2023-05-25T06:48:33;99641.44;;;21.29;63.79
34374;BME280;20637;55.770;37.592;2023-05-25T06:50:59;99649.66;;;21.18;63.98
34374;BME280;20637;55.770;37.592;2023-05-25T06:53:25;99651.88;;;21.09;63.96
34374;BME280;20637;55.770;37.592;2023-05-25T06:55:50;99644.75;;;21.08;64.14
34374;BME280;20637;55.770;37.592;2023-05-25T06:58:15;99643.06;;;21.07;64.17
34374;BME280;20637;55.770;37.592;2023-05-25T07:00:41;99646.03;;;21.06;64.01
34374;BME280;20637;55.770;37.592;2023-05-25T07:03:06;99645.81;;;21.07;64.25
34374;BME280;20637;55.770;37.592;2023-05-25T07:05:32;99649.13;;;21.09;63.96
34374;BME280;20637;55.770;37.592;2023-05-25T07:07:57;99653.56;;;21.10;63.99
34374;BME280;20637;55.770;37.592;2023-05-25T07:10:22;99650.16;;;21.15;64.07
34374;BME280;20637;55.770;37.592;2023-05-25T07:12:48;99657.69;;;21.19;63.85
34374;BME280;20637;55.770;37.592;2023-05-25T07:15:13;99660.06;;;21.16;63.94
34374;BME280;20637;55.770;37.592;2023-05-25T07:17:40;99659.91;;;21.11;64.09
34374;BME280;20637;55.770;37.592;2023-05-25T07:20:06;99657.84;;;21.06;64.31
34374;BME280;20637;55.770;37.592;2023-05-25T07:22:31;99660.38;;;21.08;64.38
34374;BME280;20637;55.770;37.592;2023-05-25T07:24:57;99647.88;;;21.12;64.39
34374;BME280;20637;55.770;37.592;2023-05-25T07:27:22;99659.81;;;21.17;64.33
34374;BME280;20637;55.770;37.592;2023-05-25T07:29:49;99651.09;;;21.20;64.29
34374;BME280;20637;55.770;37.592;2023-05-25T07:32:15;99655.03;;;21.24;64.29
34374;BME280;20637;55.770;37.592;2023-05-25T07:34:40;99653.50;;;21.28;64.32
34374;BME280;20637;55.770;37.592;2023-05-25T07:37:06;99656.16;;;21.35;64.49
34374;BME280;20637;55.770;37.592;2023-05-25T07:39:31;99653.75;;;21.38;64.18
34374;BME280;20637;55.770;37.592;2023-05-25T07:41:57;99643.84;;;21.37;64.34
34374;BME280;20637;55.770;37.592;2023-05-25T07:44:22;99650.53;;;21.42;64.24
34374;BME280;20637;55.770;37.592;2023-05-25T07:46:47;99652.09;;;21.49;64.30
34374;BME280;20637;55.770;37.592;2023-05-25T07:49:13;99644.44;;;21.51;64.43
34374;BME280;20637;55.770;37.592;2023-05-25T07:51:43;99646.13;;;21.52;64.41
34374;BME280;20637;55.770;37.592;2023-05-25T07:54:11;99648.63;;;21.54;64.33
34374;BME280;20637;55.770;37.592;2023-05-25T07:56:37;99646.13;;;21.52;64.55
34374;BME280;20637;55.770;37.592;2023-05-25T07:59:03;99636.81;;;21.53;64.31
34374;BME280;20637;55.770;37.592;2023-05-25T08:01:28;99635.38;;;21.51;64.52
34374;BME280;20637;55.770;37.592;2023-05-25T08:03:54;99639.78;;;21.52;64.57
34374;BME280;20637;55.770;37.592;2023-05-25T08:06:20;99635.97;;;21.53;64.31
34374;BME280;20637;55.770;37.592;2023-05-25T08:08:46;99639.06;;;21.56;64.53
34374;BME280;20637;55.770;37.592;2023-05-25T08:11:11;99638.84;;;21.58;64.55
34374;BME280;20637;55.770;37.592;2023-05-25T08:13:37;99635.47;;;21.56;64.24
34374;BME280;20637;55.770;37.592;2023-05-25T08:16:03;99639.31;;;21.55;64.20
34374;BME280;20637;55.770;37.592;2023-05-25T08:18:28;99631.53;;;21.52;64.39
34374;BME280;20637;55.770;37.592;2023-05-25T08:20:55;99638.34;;;21.49;64.48
34374;BME280;20637;55.770;37.592;2023-05-25T08:23:21;99644.69;;;21.50;64.54
34374;BME280;20637;55.770;37.592;2023-05-25T08:25:46;99635.75;;;21.43;64.44
34374;BME280;20637;55.770;37.592;2023-05-25T08:28:12;99641.69;;;21.39;64.71
34374;BME280;20637;55.770;37.592;2023-05-25T08:30:37;99638.00;;;21.34;64.45
34374;BME280;20637;55.770;37.592;2023-05-25T08:33:02;99640.38;;;21.30;64.77
34374;BME280;20637;55.770;37.592;2023-05-25T08:35:29;99638.13;;;21.27;64.64
34374;BME280;20637;55.770;37.592;2023-05-25T08:37:54;99635.13;;;21.29;64.73
34374;BME280;20637;55.770;37.592;2023-05-25T08:40:21;99644.19;;;21.29;64.85
34374;BME280;20637;55.770;37.592;2023-05-25T08:42:47;99638.56;;;21.24;64.82
34374;BME280;20637;55.770;37.592;2023-05-25T08:45:12;99645.03;;;21.18;64.71
34374;BME280;20637;55.770;37.592;2023-05-25T08:47:39;99639.66;;;21.12;65.13
34374;BME280;20637;55.770;37.592;2023-05-25T08:50:05;99640.53;;;21.06;65.32
34374;BME280;20637;55.770;37.592;2023-05-25T08:52:32;99643.06;;;21.07;65.41
34374;BME280;20637;55.770;37.592;2023-05-25T08:55:03;99644.97;;;21.07;65.35
34374;BME280;20637;55.770;37.592;2023-05-25T08:57:42;99653.06;;;21.02;65.81
34374;BME280;20637;55.770;37.592;2023-05-25T09:00:10;99645.41;;;20.92;65.88
34374;BME280;20637;55.770;37.592;2023-05-25T09:02:40;99639.44;;;20.83;66.19
34374;BME280;20637;55.770;37.592;2023-05-25T09:05:07;99642.72;;;20.74;66.09
34374;BME280;20637;55.770;37.592;2023-05-25T09:07:32;99644.50;;;20.68;66.38
34374;BME280;20637;55.770;37.592;2023-05-25T09:09:58;99646.03;;;20.64;66.54
34374;BME280;20637;55.770;37.592;2023-05-25T09:12:25;99647.34;;;20.62;66.67
34374;BME280;20637;55.770;37.592;2023-05-25T09:14:54;99644.84;;;20.60;66.66
34374;BME280;20637;55.770;37.592;2023-05-25T09:17:19;99639.13;;;20.62;66.71
34374;BME280;20637;55.770;37.592;2023-05-25T09:19:48;99642.09;;;20.60;66.69
34374;BME280;20637;55.770;37.592;2023-05-25T09:22:13;99651.00;;;20.56;66.62
34374;BME280;20637;55.770;37.592;2023-05-25T09:24:39;99645.16;;;20.52;66.96
34374;BME280;20637;55.770;37.592;2023-05-25T09:27:06;99643.09;;;20.48;66.93
34374;BME280;20637;55.770;37.592;2023-05-25T09:29:31;99651.22;;;20.42;67.26
34374;BME280;20637;55.770;37.592;2023-05-25T09:31:59;99657.97;;;20.40;67.54
34374;BME280;20637;55.770;37.592;2023-05-25T09:34:28;99658.28;;;20.32;67.73
34374;BME280;20637;55.770;37.592;2023-05-25T09:36:54;99650.72;;;20.27;68.63
34374;BME280;20637;55.770;37.592;2023-05-25T09:39:20;99663.16;;;20.12;68.50
34374;BME280;20637;55.770;37.592;2023-05-25T09:41:46;99666.72;;;19.94;68.78
34374;BME280;20637;55.770;37.592;2023-05-25T09:44:11;99659.72;;;19.80;68.93
34374;BME280;20637;55.770;37.592;2023-05-25T09:46:37;99656.63;;;19.76;69.22
34374;BME280;20637;55.770;37.592;2023-05-25T09:49:07;99654.72;;;19.77;69.28
34374;BME280;20637;55.770;37.592;2023-05-25T09:51:33;99655.94;;;19.81;69.46
34374;BME280;20637;55.770;37.592;2023-05-25T09:53:59;99646.88;;;19.80;69.54
34374;BME280;20637;55.770;37.592;2023-05-25T09:56:29;99646.50;;;19.77;69.68
34374;BME280;20637;55.770;37.592;2023-05-25T09:58:55;99657.66;;;19.75;69.88
34374;BME280;20637;55.770;37.592;2023-05-25T10:01:20;99649.06;;;19.72;70.43
34374;BME280;20637;55.770;37.592;2023-05-25T10:03:47;99648.91;;;19.67;70.46
34374;BME280;20637;55.770;37.592;2023-05-25T10:06:13;99647.00;;;19.67;70.79
34374;BME280;20637;55.770;37.592;2023-05-25T10:08:39;99641.06;;;19.70;70.92
34374;BME280;20637;55.770;37.592;2023-05-25T10:11:07;99644.19;;;19.74;70.83
34374;BME280;20637;55.770;37.592;2023-05-25T10:13:33;99645.41;;;19.78;71.02
34374;BME280;20637;55.770;37.592;2023-05-25T10:15:59;99650.47;;;19.81;70.93
34374;BME280;20637;55.770;37.592;2023-05-25T10:18:27;99650.22;;;19.82;71.10
34374;BME280;20637;55.770;37.592;2023-05-25T10:21:04;99650.47;;;19.81;71.20
34374;BME280;20637;55.770;37.592;2023-05-25T10:23:34;99647.09;;;19.79;71.39
34374;BME280;20637;55.770;37.592;2023-05-25T10:26:02;99641.41;;;19.80;71.43
34374;BME280;20637;55.770;37.592;2023-05-25T10:28:36;99646.41;;;19.83;71.67
34374;BME280;20637;55.770;37.592;2023-05-25T10:31:03;99641.31;;;19.87;71.86
34374;BME280;20637;55.770;37.592;2023-05-25T10:33:29;99633.69;;;19.89;72.01
34374;BME280;20637;55.770;37.592;2023-05-25T10:35:55;99633.47;;;19.90;72.12
34374;BME280;20637;55.770;37.592;2023-05-25T10:38:21;99630.06;;;19.95;71.88
34374;BME280;20637;55.770;37.592;2023-05-25T10:40:50;99638.03;;;19.96;71.89
34374;BME280;20637;55.770;37.592;2023-05-25T10:43:19;99634.91;;;19.93;71.98
34374;BME280;20637;55.770;37.592;2023-05-25T10:45:45;99637.91;;;19.91;72.12
34374;BME280;20637;55.770;37.592;2023-05-25T10:48:11;99634.78;;;19.88;72.52
34374;BME280;20637;55.770;37.592;2023-05-25T10:50:37;99628.84;;;19.91;72.42
34374;BME280;20637;55.770;37.592;2023-05-25T10:53:06;99633.19;;;19.98;72.58
34374;BME280;20637;55.770;37.592;2023-05-25T10:55:42;99633.94;;;20.06;72.50
34374;BME280;20637;55.770;37.592;2023-05-25T10:58:08;99624.72;;;20.18;72.45
34374;BME280;20637;55.770;37.592;2023-05-25T11:00:37;99623.97;;;20.29;72.62
34374;BME280;20637;55.770;37.592;2023-05-25T11:03:03;99617.31;;;20.37;73.19
34374;BME280;20637;55.770;37.592;2023-05-25T11:05:29;99620.06;;;20.37;73.10
34374;BME280;20637;55.770;37.592;2023-05-25T11:07:55;99615.78;;;20.41;72.87
34374;BME280;20637;55.770;37.592;2023-05-25T11:16:19;99608.81;;;20.57;72.71
34374;BME280;20637;55.770;37.592;2023-05-25T11:18:51;99604.03;;;20.52;72.68
34374;BME280;20637;55.770;37.592;2023-05-25T11:21:21;99610.94;;;20.55;72.68
34374;BME280;20637;55.770;37.592;2023-05-25T11:26:19;99600.06;;;20.48;73.20
34374;BME280;20637;55.770;37.592;2023-05-25T11:28:46;99602.31;;;20.39;73.66
34374;BME280;20637;55.770;37.592;2023-05-25T11:31:11;99592.34;;;20.27;73.88
34374;BME280;20637;55.770;37.592;2023-05-25T11:33:37;99585.88;;;20.21;73.95
34374;BME280;20637;55.770;37.592;2023-05-25T11:36:03;99582.66;;;20.24;73.76
34374;BME280;20637;55.770;37.592;2023-05-25T11:38:29;99581.81;;;20.24;74.14
34374;BME280;20637;55.770;37.592;2023-05-25T11:40:55;99580.19;;;20.23;73.95
34374;BME280;20637;55.770;37.592;2023-05-25T11:43:21;99572.16;;;20.21;73.96
34374;BME280;20637;55.770;37.592;2023-05-25T11:45:53;99581.59;;;20.25;74.01
34374;BME280;20637;55.770;37.592;2023-05-25T11:48:19;99573.97;;;20.27;73.78
34374;BME280;20637;55.770;37.592;2023-05-25T11:50:45;99579.88;;;20.31;73.74
34374;BME280;20637;55.770;37.592;2023-05-25T11:53:10;99582.00;;;20.29;73.60
34374;BME280;20637;55.770;37.592;2023-05-25T11:55:36;99581.78;;;20.30;73.58
34374;BME280;20637;55.770;37.592;2023-05-25T11:58:05;99579.03;;;20.30;73.40
34374;BME280;20637;55.770;37.592;2023-05-25T12:00:30;99585.50;;;20.36;73.78
34374;BME280;20637;55.770;37.592;2023-05-25T12:02:56;99580.53;;;20.44;73.84
34374;BME280;20637;55.770;37.592;2023-05-25T12:05:22;99581.03;;;20.53;73.66
34374;BME280;20637;55.770;37.592;2023-05-25T12:07:48;99588.56;;;20.58;73.71
34374;BME280;20637;55.770;37.592;2023-05-25T12:10:14;99578.50;;;20.52;73.45
34374;BME280;20637;55.770;37.592;2023-05-25T12:12:46;99588.06;;;20.49;73.36
34374;BME280;20637;55.770;37.592;2023-05-25T12:15:13;99577.63;;;20.39;73.38
34374;BME280;20637;55.770;37.592;2023-05-25T12:17:40;99575.84;;;20.33;73.63
34374;BME280;20637;55.770;37.592;2023-05-25T12:20:06;99573.31;;;20.32;73.57
34374;BME280;20637;55.770;37.592;2023-05-25T12:22:32;99573.78;;;20.29;73.41
34374;BME280;20637;55.770;37.592;2023-05-25T12:24:57;99572.78;;;20.23;73.64
34374;BME280;20637;55.770;37.592;2023-05-25T12:27:24;99570.38;;;20.15;73.61
34374;BME280;20637;55.770;37.592;2023-05-25T12:29:49;99565.81;;;20.09;73.60
34374;BME280;20637;55.770;37.592;2023-05-25T12:32:17;99568.41;;;20.04;73.86
34374;BME280;20637;55.770;37.592;2023-05-25T12:34:42;99561.00;;;20.05;73.74
34374;BME280;20637;55.770;37.592;2023-05-25T12:37:16;99559.72;;;20.07;73.70
34374;BME280;20637;55.770;37.592;2023-05-25T12:39:43;99559.34;;;20.04;73.79
34374;BME280;20637;55.770;37.592;2023-05-25T12:42:11;99565.69;;;20.04;73.64
34374;BME280;20637;55.770;37.592;2023-05-25T12:44:37;99562.47;;;20.07;73.72
34374;BME280;20637;55.770;37.592;2023-05-25T12:49:44;99565.91;;;20.03;73.57
34374;BME280;20637;55.770;37.592;2023-05-25T12:52:10;99571.97;;;20.05;73.77
34374;BME280;20637;55.770;37.592;2023-05-25T12:54:40;99562.22;;;20.09;73.58
34374;BME280;20637;55.770;37.592;2023-05-25T12:57:08;99567.56;;;20.04;73.42
34374;BME280;20637;55.770;37.592;2023-05-25T12:59:34;99556.38;;;20.05;73.22
34374;BME280;20637;55.770;37.592;2023-05-25T13:02:01;99561.91;;;20.17;73.28